createdAt,value
2022-08-30T00:01:54.271Z,4.43
2022-08-30T00:04:03.962Z,3.70
2022-08-30T00:06:12.730Z,3.88
2022-08-30T00:08:20.274Z,3.90
2022-08-30T00:10:29.806Z,4.80
2022-08-30T00:12:39.086Z,4.90
2022-08-30T00:14:45.970Z,4.80
2022-08-30T00:16:53.244Z,5.00
2022-08-30T00:19:03.247Z,5.85
2022-08-30T00:21:11.092Z,5.53
2022-08-30T00:23:18.793Z,5.80
2022-08-30T00:25:26.128Z,4.55
2022-08-30T00:27:33.917Z,5.05
2022-08-30T00:29:40.998Z,4.75
2022-08-30T00:31:48.635Z,4.47
2022-08-30T00:33:55.571Z,4.60
2022-08-30T00:36:04.997Z,5.40
2022-08-30T00:38:12.541Z,4.65
2022-08-30T00:40:27.315Z,4.65
2022-08-30T00:42:34.990Z,4.60
2022-08-30T00:44:42.178Z,4.70
2022-08-30T00:46:49.358Z,5.47
2022-08-30T00:48:56.946Z,7.20
2022-08-30T00:51:13.142Z,6.07
2022-08-30T00:53:23.468Z,5.30
2022-08-30T00:55:31.755Z,5.15
2022-08-30T00:57:42.980Z,4.45
2022-08-30T00:59:52.786Z,4.22
2022-08-30T01:02:00.415Z,3.78
2022-08-30T01:04:09.848Z,3.58
2022-08-30T01:06:19.280Z,3.83
2022-08-30T01:08:26.614Z,3.70
2022-08-30T01:10:34.671Z,3.60
2022-08-30T01:12:42.313Z,3.70
2022-08-30T01:14:49.799Z,3.30
2022-08-30T01:17:00.886Z,3.90
2022-08-30T01:19:10.466Z,4.55
2022-08-30T01:21:27.742Z,4.38
2022-08-30T01:23:43.869Z,4.60
2022-08-30T01:25:52.694Z,4.72
2022-08-30T01:28:03.310Z,5.32
2022-08-30T01:30:11.763Z,5.28
2022-08-30T01:32:28.559Z,6.60
2022-08-30T01:34:36.527Z,6.25
2022-08-30T01:36:45.312Z,6.38
2022-08-30T01:38:56.471Z,6.65
2022-08-30T01:41:11.281Z,7.18
2022-08-30T01:43:20.404Z,6.95
2022-08-30T01:45:27.790Z,6.32
2022-08-30T01:47:34.824Z,5.75
2022-08-30T01:49:42.972Z,6.13
2022-08-30T01:51:50.369Z,6.28
2022-08-30T01:54:09.532Z,6.97
2022-08-30T01:56:17.315Z,7.10
2022-08-30T01:58:24.404Z,8.20
2022-08-30T02:00:31.836Z,7.05
2022-08-30T02:02:39.220Z,7.55
2022-08-30T02:04:47.053Z,6.28
2022-08-30T02:06:54.094Z,6.00
2022-08-30T02:09:01.446Z,5.53
2022-08-30T02:11:11.020Z,5.25
2022-08-30T02:13:18.214Z,5.60
2022-08-30T02:15:25.331Z,5.20
2022-08-30T02:17:32.569Z,4.95
2022-08-30T02:19:39.937Z,5.07
2022-08-30T02:21:46.926Z,5.00
2022-08-30T02:23:54.580Z,4.75
2022-08-30T02:26:02.521Z,4.57
2022-08-30T02:28:11.444Z,4.15
2022-08-30T02:30:22.092Z,5.63
2022-08-30T02:32:29.271Z,6.20
2022-08-30T02:34:36.520Z,5.50
2022-08-30T02:36:43.660Z,5.82
2022-08-30T02:38:51.343Z,5.57
2022-08-30T02:40:58.523Z,5.50
2022-08-30T02:43:05.604Z,5.20
2022-08-30T02:45:15.241Z,5.22
2022-08-30T02:49:33.704Z,4.82
2022-08-30T02:51:41.701Z,4.85
2022-08-30T02:53:49.241Z,4.53
2022-08-30T02:55:56.686Z,4.10
2022-08-30T02:58:05.503Z,4.47
2022-08-30T03:00:17.610Z,4.32
2022-08-30T03:02:25.037Z,3.95
2022-08-30T03:04:32.521Z,3.65
2022-08-30T03:06:39.859Z,3.92
2022-08-30T03:08:47.153Z,4.60
2022-08-30T03:10:54.527Z,5.30
2022-08-30T03:13:02.078Z,5.13
2022-08-30T03:15:10.073Z,5.10
2022-08-30T03:17:19.665Z,4.75
2022-08-30T03:19:26.739Z,4.90
2022-08-30T03:21:34.129Z,5.22
2022-08-30T03:23:42.024Z,5.43
2022-08-30T03:25:49.258Z,4.82
2022-08-30T03:27:56.238Z,5.53
2022-08-30T03:30:03.212Z,5.07
2022-08-30T03:32:10.518Z,4.97
2022-08-30T03:34:19.418Z,4.88
2022-08-30T03:36:27.160Z,4.47
2022-08-30T03:38:34.394Z,4.60
2022-08-30T03:40:41.950Z,4.47
2022-08-30T03:42:49.832Z,4.70
2022-08-30T03:44:57.536Z,4.53
2022-08-30T03:47:04.500Z,4.10
2022-08-30T03:49:12.552Z,4.03
2022-08-30T03:51:21.281Z,3.90
2022-08-30T03:53:28.811Z,4.20
2022-08-30T03:55:35.699Z,4.07
2022-08-30T03:57:44.150Z,3.97
2022-08-30T03:59:51.277Z,4.47
2022-08-30T04:01:59.769Z,3.80
2022-08-30T04:04:07.078Z,3.88
2022-08-30T04:06:15.077Z,3.42
2022-08-30T04:08:24.203Z,3.63
2022-08-30T04:10:31.691Z,3.35
2022-08-30T04:12:39.081Z,3.63
2022-08-30T04:14:46.464Z,3.40
2022-08-30T04:16:54.031Z,3.55
2022-08-30T04:19:01.132Z,3.58
2022-08-30T04:21:12.356Z,3.75
2022-08-30T04:23:23.128Z,3.50
2022-08-30T04:25:30.261Z,3.00
2022-08-30T04:27:37.285Z,3.95
2022-08-30T04:29:44.980Z,4.10
2022-08-30T04:31:52.124Z,3.40
2022-08-30T04:33:59.392Z,3.58
2022-08-30T04:36:07.811Z,3.47
2022-08-30T04:38:15.702Z,3.45
2022-08-30T04:40:24.440Z,3.40
2022-08-30T04:42:32.729Z,3.30
2022-08-30T04:44:40.110Z,3.58
2022-08-30T04:46:47.190Z,3.65
2022-08-30T04:48:54.380Z,3.10
2022-08-30T04:51:01.458Z,3.08
2022-08-30T04:53:08.958Z,3.15
2022-08-30T04:55:20.002Z,3.47
2022-08-30T04:57:30.278Z,3.53
2022-08-30T04:59:37.507Z,3.28
2022-08-30T05:01:46.030Z,3.40
2022-08-30T05:03:54.378Z,3.60
2022-08-30T05:06:01.762Z,3.58
2022-08-30T05:08:09.150Z,3.53
2022-08-30T05:10:16.328Z,3.40
2022-08-30T05:12:23.510Z,3.17
2022-08-30T05:14:32.432Z,3.92
2022-08-30T05:16:39.720Z,3.55
2022-08-30T05:18:47.669Z,3.47
2022-08-30T05:21:05.552Z,3.55
2022-08-30T05:23:13.155Z,3.40
2022-08-30T05:25:21.655Z,3.90
2022-08-30T05:27:29.139Z,3.50
2022-08-30T05:29:38.120Z,3.58
2022-08-30T05:31:46.836Z,3.60
2022-08-30T05:33:55.038Z,3.85
2022-08-30T05:36:02.073Z,5.03
2022-08-30T05:38:09.128Z,4.63
2022-08-30T05:40:18.602Z,4.63
2022-08-30T05:42:26.016Z,5.03
2022-08-30T05:44:33.206Z,5.20
2022-08-30T05:46:46.831Z,5.32
2022-08-30T05:48:55.089Z,4.25
2022-08-30T05:51:10.159Z,4.50
2022-08-30T05:53:17.026Z,4.32
2022-08-30T05:55:24.271Z,4.50
2022-08-30T05:57:31.596Z,4.65
2022-08-30T05:59:38.629Z,4.28
2022-08-30T06:01:48.840Z,4.20
2022-08-30T06:04:00.376Z,4.00
2022-08-30T06:06:10.719Z,4.65
2022-08-30T06:08:18.196Z,4.32
2022-08-30T06:10:25.289Z,4.75
2022-08-30T06:12:32.418Z,4.28
2022-08-30T06:14:40.105Z,4.50
2022-08-30T06:16:49.088Z,4.50
2022-08-30T06:18:57.102Z,4.40
2022-08-30T06:21:04.468Z,4.50
2022-08-30T06:23:12.119Z,4.68
2022-08-30T06:25:19.295Z,4.38
2022-08-30T06:27:26.889Z,4.75
2022-08-30T06:29:33.915Z,4.47
2022-08-30T06:31:41.865Z,4.60
2022-08-30T06:33:51.140Z,4.22
2022-08-30T06:35:59.963Z,3.65
2022-08-30T06:38:08.336Z,3.83
2022-08-30T06:40:18.627Z,4.20
2022-08-30T06:42:31.707Z,4.38
2022-08-30T06:44:38.773Z,5.22
2022-08-30T06:46:45.958Z,5.28
2022-08-30T06:48:56.153Z,5.32
2022-08-30T06:51:03.852Z,4.72
2022-08-30T06:53:11.395Z,3.80
2022-08-30T06:55:20.786Z,4.30
2022-08-30T06:57:27.919Z,4.15
2022-08-30T06:59:35.162Z,3.85
2022-08-30T07:01:43.037Z,4.05
2022-08-30T07:03:50.123Z,3.92
2022-08-30T07:06:00.278Z,3.47
2022-08-30T07:08:07.554Z,3.88
2022-08-30T07:10:15.921Z,3.95
2022-08-30T07:12:23.452Z,3.75
2022-08-30T07:14:30.746Z,4.10
2022-08-30T07:16:38.481Z,4.28
2022-08-30T07:18:56.007Z,3.80
2022-08-30T07:21:11.892Z,4.18
2022-08-30T07:23:19.176Z,3.90
2022-08-30T07:25:26.306Z,4.13
2022-08-30T07:27:34.055Z,4.28
2022-08-30T07:29:41.023Z,4.60
2022-08-30T07:31:48.420Z,5.10
2022-08-30T07:33:55.851Z,5.03
2022-08-30T07:36:06.107Z,6.22
2022-08-30T07:38:17.027Z,5.93
2022-08-30T07:40:24.713Z,6.38
2022-08-30T07:42:31.901Z,5.32
2022-08-30T07:44:39.292Z,6.75
2022-08-30T07:46:46.967Z,7.60
2022-08-30T07:48:55.387Z,7.85
2022-08-30T07:51:05.998Z,6.68
2022-08-30T07:53:13.589Z,5.95
2022-08-30T07:55:21.184Z,5.78
2022-08-30T07:57:28.685Z,5.93
2022-08-30T07:59:36.320Z,5.88
2022-08-30T08:01:43.971Z,5.47
2022-08-30T08:03:51.396Z,5.53
2022-08-30T08:05:58.684Z,5.28
2022-08-30T08:08:07.713Z,5.65
2022-08-30T08:10:15.906Z,5.82
2022-08-30T08:12:22.884Z,6.00
2022-08-30T08:14:30.377Z,4.95
2022-08-30T08:16:39.192Z,5.18
2022-08-30T08:18:46.283Z,4.43
2022-08-30T08:20:54.824Z,5.10
2022-08-30T08:23:05.928Z,4.93
2022-08-30T08:25:13.553Z,4.70
2022-08-30T08:27:20.684Z,5.40
2022-08-30T08:29:28.070Z,4.90
2022-08-30T08:31:35.141Z,4.65
2022-08-30T08:33:42.228Z,4.68
2022-08-30T08:35:49.616Z,5.03
2022-08-30T08:37:56.742Z,5.72
2022-08-30T08:40:05.710Z,5.57
2022-08-30T08:42:19.817Z,5.53
2022-08-30T08:44:39.833Z,4.07
2022-08-30T08:46:55.830Z,3.97
2022-08-30T08:49:08.045Z,3.45
2022-08-30T08:51:33.900Z,3.70
2022-08-30T08:53:48.109Z,3.38
2022-08-30T08:55:57.589Z,3.33
2022-08-30T08:58:04.797Z,3.70
2022-08-30T09:00:14.313Z,3.88
2022-08-30T09:02:28.344Z,4.00
2022-08-30T09:04:41.039Z,4.05
2022-08-30T09:06:56.182Z,3.78
2022-08-30T09:09:03.360Z,3.95
2022-08-30T09:11:17.862Z,3.63
2022-08-30T09:13:25.549Z,3.90
2022-08-30T09:15:37.837Z,3.50
2022-08-30T09:17:57.424Z,3.60
2022-08-30T09:20:05.425Z,3.15
2022-08-30T09:22:27.615Z,2.97
2022-08-30T09:24:44.127Z,3.03
2022-08-30T09:26:52.935Z,3.22
2022-08-30T09:29:01.391Z,3.20
2022-08-30T09:31:12.507Z,3.25
2022-08-30T09:33:25.749Z,3.25
2022-08-30T09:35:39.320Z,3.15
2022-08-30T09:37:55.205Z,3.42
2022-08-30T09:40:03.367Z,2.83
2022-08-30T09:42:22.783Z,3.47
2022-08-30T09:44:31.602Z,3.30
2022-08-30T09:46:45.534Z,3.42
2022-08-30T09:48:52.669Z,3.60
2022-08-30T09:51:16.595Z,3.03
2022-08-30T09:53:28.385Z,3.45
2022-08-30T09:56:02.955Z,3.47
2022-08-30T09:58:18.808Z,10.20
2022-08-30T10:00:30.025Z,8.35
2022-08-30T10:02:48.883Z,6.93
2022-08-30T10:05:03.435Z,6.10
2022-08-30T10:07:15.985Z,5.18
2022-08-30T10:09:29.309Z,3.60
2022-08-30T10:11:42.480Z,4.07
2022-08-30T10:14:07.436Z,3.30
2022-08-30T10:16:24.134Z,3.42
2022-08-30T10:18:37.919Z,4.20
2022-08-30T10:20:55.763Z,4.38
2022-08-30T10:23:10.507Z,4.30
2022-08-30T10:25:22.560Z,3.85
2022-08-30T10:27:32.967Z,3.10
2022-08-30T10:29:47.626Z,4.70
2022-08-30T10:31:59.562Z,15.90
2022-08-30T10:34:12.887Z,15.25
2022-08-30T10:36:30.721Z,13.40
2022-08-30T10:38:40.413Z,12.98
2022-08-30T10:41:07.513Z,13.30
2022-08-30T10:43:23.909Z,14.23
2022-08-30T10:45:36.769Z,13.82
2022-08-30T10:47:48.512Z,8.73
2022-08-30T10:50:07.621Z,7.70
2022-08-30T10:52:32.267Z,6.35
2022-08-30T10:54:44.880Z,5.20
2022-08-30T10:56:54.363Z,4.50
2022-08-30T10:59:01.900Z,4.38
2022-08-30T11:01:28.472Z,5.00
2022-08-30T11:04:09.363Z,4.57
2022-08-30T11:06:29.418Z,4.32
2022-08-30T11:09:08.210Z,4.20
2022-08-30T11:11:23.235Z,4.47
2022-08-30T11:13:33.645Z,4.05
2022-08-30T11:15:56.383Z,4.13
2022-08-30T11:18:14.159Z,3.88
2022-08-30T11:20:34.482Z,4.43
2022-08-30T11:22:41.987Z,4.60
2022-08-30T11:25:09.790Z,5.00
2022-08-30T11:27:52.214Z,5.22
2022-08-30T11:32:43.898Z,4.95
2022-08-30T11:35:03.164Z,5.53
2022-08-30T11:37:12.753Z,5.13
2022-08-30T11:39:54.966Z,5.32
2022-08-30T11:42:15.148Z,6.03
2022-08-30T11:44:34.212Z,6.75
2022-08-30T11:46:45.428Z,5.70
2022-08-30T11:48:56.037Z,6.70
2022-08-30T11:51:10.081Z,6.55
2022-08-30T11:53:24.533Z,6.60
2022-08-30T11:55:47.330Z,6.57
2022-08-30T11:58:02.296Z,6.03
2022-08-30T12:00:15.008Z,6.40
2022-08-30T12:02:52.679Z,5.93
2022-08-30T12:05:00.400Z,7.03
2022-08-30T12:07:10.818Z,6.72
2022-08-30T12:10:09.390Z,6.50
2022-08-30T12:13:02.462Z,6.85
2022-08-30T12:15:10.089Z,6.78
2022-08-30T12:17:52.166Z,6.75
2022-08-30T12:20:01.266Z,6.75
2022-08-30T12:22:11.161Z,8.95
2022-08-30T12:24:26.898Z,9.70
2022-08-30T12:26:37.304Z,11.50
2022-08-30T12:28:46.841Z,12.27
2022-08-30T12:30:54.739Z,12.13
2022-08-30T12:33:02.332Z,13.10
2022-08-30T12:35:11.213Z,11.68
2022-08-30T12:37:27.443Z,10.57
2022-08-30T12:39:36.109Z,9.77
2022-08-30T12:41:43.935Z,11.82
2022-08-30T12:43:54.261Z,14.10
2022-08-30T12:46:07.441Z,16.15
2022-08-30T12:48:18.081Z,16.83
2022-08-30T12:50:30.880Z,11.00
2022-08-30T12:52:42.711Z,9.77
2022-08-30T12:54:51.571Z,10.13
2022-08-30T12:57:35.026Z,10.68
2022-08-30T12:59:52.914Z,12.30
2022-08-30T13:02:20.326Z,11.75
2022-08-30T13:04:31.574Z,12.18
2022-08-30T13:06:47.512Z,12.65
2022-08-30T13:08:56.741Z,12.55
2022-08-30T13:11:08.512Z,11.70
2022-08-30T13:13:28.975Z,12.48
2022-08-30T13:15:38.164Z,11.68
2022-08-30T13:17:46.102Z,12.23
2022-08-30T13:20:06.511Z,12.43
2022-08-30T13:22:30.528Z,12.73
2022-08-30T13:24:39.230Z,13.15
2022-08-30T13:26:46.620Z,12.25
2022-08-30T13:28:59.026Z,13.50
2022-08-30T13:31:12.261Z,12.18
2022-08-30T13:33:20.143Z,13.68
2022-08-30T13:35:27.800Z,13.13
2022-08-30T13:37:47.252Z,11.25
2022-08-30T13:40:03.882Z,10.10
2022-08-30T13:44:41.474Z,11.32
2022-08-30T13:46:54.889Z,10.88
2022-08-30T13:49:42.657Z,10.73
2022-08-30T13:51:33.938Z,11.40
2022-08-30T13:53:57.788Z,11.68
2022-08-30T13:56:08.421Z,11.77
2022-08-30T13:58:21.343Z,13.18
2022-08-30T14:00:31.371Z,11.95
2022-08-30T14:02:47.631Z,10.57
2022-08-30T14:05:02.198Z,12.43
2022-08-30T14:07:19.932Z,11.10
2022-08-30T14:09:27.966Z,12.52
2022-08-30T14:11:38.177Z,11.73
2022-08-30T14:16:28.615Z,11.48
2022-08-30T14:18:36.227Z,11.07
2022-08-30T14:20:44.427Z,11.13
2022-08-30T14:22:52.284Z,11.40
2022-08-30T14:24:59.403Z,11.63
2022-08-30T14:27:08.271Z,11.27
2022-08-30T14:29:17.354Z,10.65
2022-08-30T14:31:24.685Z,11.43
2022-08-30T14:33:31.819Z,11.75
2022-08-30T14:35:39.151Z,11.77
2022-08-30T14:37:46.138Z,11.65
2022-08-30T14:39:53.357Z,12.52
2022-08-30T14:42:04.202Z,12.00
2022-08-30T14:44:13.454Z,13.83
2022-08-30T14:46:20.943Z,12.90
2022-08-30T14:48:29.046Z,12.57
2022-08-30T14:50:37.871Z,13.23
2022-08-30T14:52:45.346Z,13.50
2022-08-30T14:54:57.501Z,13.68
2022-08-30T14:57:05.813Z,13.98
2022-08-30T14:59:15.453Z,15.60
2022-08-30T15:01:24.735Z,19.00
2022-08-30T15:03:31.831Z,19.70
2022-08-30T15:05:39.403Z,20.15
2022-08-30T15:07:47.110Z,20.58
2022-08-30T15:09:55.113Z,19.40
2022-08-30T15:12:03.878Z,18.73
2022-08-30T15:14:15.994Z,19.35
2022-08-30T15:16:25.370Z,18.13
2022-08-30T15:18:32.787Z,17.08
2022-08-30T15:20:41.756Z,17.63
2022-08-30T15:22:49.860Z,17.27
2022-08-30T15:24:56.952Z,17.17
2022-08-30T15:27:04.529Z,17.80
2022-08-30T15:29:16.220Z,17.88
2022-08-30T15:31:24.499Z,17.65
2022-08-30T15:33:32.219Z,16.45
2022-08-30T15:35:39.503Z,17.38
2022-08-30T15:37:46.534Z,18.30
2022-08-30T15:39:53.663Z,18.63
2022-08-30T15:42:01.445Z,18.80
2022-08-30T15:44:10.174Z,19.15
2022-08-30T15:46:29.619Z,19.52
2022-08-30T15:48:41.812Z,17.30
2022-08-30T15:51:00.975Z,17.20
2022-08-30T15:53:08.597Z,17.98
2022-08-30T15:55:15.639Z,18.38
2022-08-30T15:57:22.966Z,17.95
2022-08-30T15:59:30.808Z,15.95
2022-08-30T16:01:39.919Z,16.45
2022-08-30T16:03:47.322Z,17.60
2022-08-30T16:05:55.632Z,18.35
2022-08-30T16:08:02.555Z,17.70
2022-08-30T16:10:10.862Z,19.38
2022-08-30T16:12:23.779Z,20.77
2022-08-30T16:14:31.064Z,20.08
2022-08-30T16:16:41.130Z,19.33
2022-08-30T16:18:54.084Z,22.35
2022-08-30T16:21:09.812Z,22.38
2022-08-30T16:23:16.796Z,22.08
2022-08-30T16:25:23.869Z,21.42
2022-08-30T16:27:30.844Z,19.90
2022-08-30T16:29:38.280Z,21.08
2022-08-30T16:31:47.717Z,20.75
2022-08-30T16:33:55.412Z,20.85
2022-08-30T16:36:10.748Z,20.73
2022-08-30T16:38:18.219Z,19.80
2022-08-30T16:40:25.141Z,19.52
2022-08-30T16:42:32.174Z,19.58
2022-08-30T16:44:40.253Z,19.27
2022-08-30T16:46:52.852Z,18.80
2022-08-30T16:49:02.627Z,19.42
2022-08-30T16:51:11.908Z,20.48
2022-08-30T16:53:19.102Z,19.48
2022-08-30T16:55:26.539Z,19.15
2022-08-30T16:57:34.067Z,19.30
2022-08-30T16:59:42.259Z,19.83
2022-08-30T17:01:51.477Z,19.92
2022-08-30T17:03:59.928Z,20.80
2022-08-30T17:06:07.455Z,19.92
2022-08-30T17:08:14.596Z,20.05
2022-08-30T17:10:23.396Z,18.17
2022-08-30T17:14:39.972Z,18.80
2022-08-30T17:16:49.711Z,19.27
2022-08-30T17:18:59.606Z,20.10
2022-08-30T17:21:08.887Z,18.98
2022-08-30T17:23:16.583Z,18.90
2022-08-30T17:25:25.769Z,20.52
2022-08-30T17:27:36.833Z,19.20
2022-08-30T17:29:44.525Z,20.35
2022-08-30T17:31:53.626Z,20.10
2022-08-30T17:34:03.518Z,18.58
2022-08-30T17:36:11.961Z,18.15
2022-08-30T17:38:19.251Z,18.15
2022-08-30T17:40:26.861Z,18.38
2022-08-30T17:42:34.529Z,18.60
2022-08-30T17:44:42.537Z,17.77
2022-08-30T17:46:49.995Z,17.17
2022-08-30T17:49:01.333Z,16.80
2022-08-30T17:51:09.455Z,17.73
2022-08-30T17:53:16.546Z,16.33
2022-08-30T17:55:24.170Z,15.75
2022-08-30T17:57:31.561Z,15.82
2022-08-30T17:59:39.301Z,16.10
2022-08-30T18:01:47.127Z,17.17
2022-08-30T18:04:01.605Z,16.50
2022-08-30T18:06:09.965Z,14.57
2022-08-30T18:08:18.562Z,16.65
2022-08-30T18:10:26.766Z,16.85
2022-08-30T18:12:40.323Z,17.17
2022-08-30T18:14:52.926Z,18.05
2022-08-30T18:17:01.586Z,17.02
2022-08-30T18:19:11.741Z,16.95
2022-08-30T18:21:22.084Z,16.80
2022-08-30T18:23:29.380Z,16.30
2022-08-30T18:25:36.817Z,15.52
2022-08-30T18:27:43.899Z,15.82
2022-08-30T18:29:57.322Z,16.35
2022-08-30T18:32:05.131Z,15.90
2022-08-30T18:34:14.249Z,15.52
2022-08-30T18:36:21.632Z,15.75
2022-08-30T18:38:29.542Z,16.95
2022-08-30T18:40:36.749Z,16.42
2022-08-30T18:42:44.214Z,15.98
2022-08-30T18:44:52.645Z,16.40
2022-08-30T18:47:03.663Z,16.83
2022-08-30T18:49:14.570Z,17.25
2022-08-30T18:51:26.344Z,15.98
2022-08-30T18:53:36.442Z,15.75
2022-08-30T18:55:43.729Z,16.45
2022-08-30T18:57:51.118Z,15.93
2022-08-30T18:59:58.500Z,16.52
2022-08-30T19:02:05.851Z,15.23
2022-08-30T19:04:20.662Z,14.88
2022-08-30T19:06:38.578Z,15.10
2022-08-30T19:08:46.540Z,16.63
2022-08-30T19:11:01.419Z,15.43
2022-08-30T19:13:12.206Z,16.00
2022-08-30T19:15:20.058Z,16.30
2022-08-30T19:17:27.597Z,15.85
2022-08-30T19:19:34.889Z,15.30
2022-08-30T19:21:46.015Z,14.20
2022-08-30T19:23:55.093Z,14.35
2022-08-30T19:26:02.977Z,13.18
2022-08-30T19:28:10.164Z,12.35
2022-08-30T19:30:23.154Z,13.10
2022-08-30T19:32:32.367Z,13.65
2022-08-30T19:34:39.745Z,12.65
2022-08-30T19:36:48.920Z,13.82
2022-08-30T19:38:56.144Z,12.98
2022-08-30T19:41:03.286Z,14.38
2022-08-30T19:43:10.394Z,13.38
2022-08-30T19:45:21.480Z,13.95
2022-08-30T19:47:29.231Z,12.80
2022-08-30T19:49:37.028Z,14.35
2022-08-30T19:51:47.049Z,14.85
2022-08-30T19:53:56.360Z,14.00
2022-08-30T19:56:05.954Z,12.98
2022-08-30T19:58:14.310Z,12.82
2022-08-30T20:00:22.319Z,13.45
2022-08-30T20:02:29.325Z,13.93
2022-08-30T20:04:36.463Z,13.50
2022-08-30T20:06:48.823Z,12.95
2022-08-30T20:08:58.286Z,13.80
2022-08-30T20:11:07.482Z,14.43
2022-08-30T20:13:16.951Z,14.52
2022-08-30T20:15:27.272Z,13.27
2022-08-30T20:18:00.079Z,13.02
2022-08-30T20:20:02.690Z,12.27
2022-08-30T20:22:11.812Z,14.20
2022-08-30T20:24:21.294Z,12.93
2022-08-30T20:26:33.429Z,14.05
2022-08-30T20:28:41.399Z,13.73
2022-08-30T20:30:49.859Z,14.60
2022-08-30T20:32:56.982Z,15.63
2022-08-30T20:35:04.217Z,25.75
2022-08-30T20:37:11.804Z,24.00
2022-08-30T20:39:20.472Z,28.20
2022-08-30T20:41:30.067Z,25.92
2022-08-30T20:43:37.198Z,21.23
2022-08-30T20:45:44.397Z,18.83
2022-08-30T20:47:51.556Z,17.48
2022-08-30T20:49:59.097Z,16.73
2022-08-30T20:52:06.326Z,16.55
2022-08-30T20:54:18.999Z,15.97
2022-08-30T20:56:26.796Z,14.57
2022-08-30T20:58:34.386Z,15.52
2022-08-30T21:00:45.776Z,16.13
2022-08-30T21:02:53.674Z,17.95
2022-08-30T21:05:00.993Z,17.83
2022-08-30T21:07:08.284Z,17.77
2022-08-30T21:09:16.229Z,16.23
2022-08-30T21:11:25.203Z,16.23
2022-08-30T21:13:32.333Z,16.17
2022-08-30T21:15:39.713Z,15.68
2022-08-30T21:17:48.790Z,15.27
2022-08-30T21:19:57.814Z,16.63
2022-08-30T21:22:06.683Z,15.95
2022-08-30T21:24:14.123Z,14.57
2022-08-30T21:26:22.326Z,14.38
2022-08-30T21:28:31.151Z,15.15
2022-08-30T21:30:38.257Z,14.95
2022-08-30T21:32:45.920Z,15.77
2022-08-30T21:35:09.654Z,15.57
2022-08-30T21:37:16.678Z,15.05
2022-08-30T21:39:25.137Z,14.68
2022-08-30T21:41:32.883Z,15.27
2022-08-30T21:43:41.753Z,14.18
2022-08-30T21:45:51.397Z,14.75
2022-08-30T21:47:58.668Z,15.45
2022-08-30T21:50:09.025Z,14.80
2022-08-30T21:52:15.907Z,14.63
2022-08-30T21:54:23.439Z,14.88
2022-08-30T21:56:30.518Z,15.32
2022-08-30T21:58:38.110Z,14.35
2022-08-30T22:00:46.836Z,13.95
2022-08-30T22:02:54.602Z,13.80
2022-08-30T22:05:01.913Z,14.25
2022-08-30T22:07:09.446Z,15.18
2022-08-30T22:09:17.345Z,15.02
2022-08-30T22:11:26.319Z,14.18
2022-08-30T22:13:33.560Z,13.90
2022-08-30T22:15:40.785Z,12.98
2022-08-30T22:17:49.706Z,12.80
2022-08-30T22:19:56.991Z,13.27
2022-08-30T22:22:04.285Z,12.63
2022-08-30T22:24:11.865Z,13.40
2022-08-30T22:26:20.070Z,13.73
2022-08-30T22:28:27.666Z,15.60
2022-08-30T22:30:34.847Z,14.48
2022-08-30T22:32:42.027Z,14.27
2022-08-30T22:34:51.049Z,13.60
2022-08-30T22:36:58.139Z,14.05
2022-08-30T22:39:07.771Z,13.93
2022-08-30T22:41:16.577Z,14.23
2022-08-30T22:43:23.722Z,13.82
2022-08-30T22:45:32.269Z,14.13
2022-08-30T22:47:39.484Z,13.38
2022-08-30T22:49:46.649Z,12.57
2022-08-30T22:51:55.634Z,14.65
2022-08-30T22:54:03.674Z,14.10
2022-08-30T22:56:17.154Z,15.40
2022-08-30T22:58:24.487Z,15.98
2022-08-30T23:00:31.724Z,14.50
2022-08-30T23:02:39.009Z,15.45
2022-08-30T23:04:46.654Z,17.40
2022-08-30T23:06:55.366Z,18.02
2022-08-30T23:09:02.957Z,25.58
2022-08-30T23:11:10.142Z,30.08
2022-08-30T23:13:17.447Z,30.48
2022-08-30T23:15:25.370Z,27.58
2022-08-30T23:17:32.347Z,24.85
2022-08-30T23:19:47.162Z,23.15
2022-08-30T23:21:55.978Z,24.33
2022-08-30T23:24:19.545Z,24.63
2022-08-30T23:26:43.834Z,23.40
2022-08-30T23:29:07.597Z,25.23
2022-08-30T23:31:33.369Z,25.00
2022-08-30T23:33:56.674Z,27.10
2022-08-30T23:36:26.080Z,26.60
2022-08-30T23:38:51.332Z,29.05
2022-08-30T23:41:15.359Z,29.30
2022-08-30T23:43:38.937Z,27.25
2022-08-30T23:46:03.044Z,24.55
2022-08-30T23:48:26.577Z,28.23
2022-08-30T23:50:50.343Z,29.65
2022-08-30T23:53:14.264Z,25.42
2022-08-30T23:55:39.720Z,15.70
2022-08-30T23:58:02.940Z,13.70
